Thunder radar more information blitzortung!


Radar de pluja more information rain snow radar


Visita la nostra xarxa de llocs de meteo:

Template documentation
and downloads

And another site



No particular awareness of the weather is required.    There are no Weather-warnings

Pagina Historial Weather Underground text

Diari Resum May 21, 2017 Unitats:  Imperial    Mètric   Tant
« Previous Dia
SegĂźent Dia »
Diari Setmana Mensual Anual Personalitzada
  Maxima: Minima: Media:
Temperatura: TemperatureC °F 11.4 °F 20.6 °F
Punt de rosada: DewpointC °F 7.4 °F 10 °F
Humitat: Humidity % 39 % 52 %
Wind Speed: WindSpeedKMH mph 0.0 mph 7.6 mph
RĂ fegues de vent: WindSpeedGustKMH mph - -
Vent:- - SSW
Pression baro: PressurehPa in 1018.8 in -
Precipitacions: 0.0 in    
Historical Graphs
 
 
Dades de taula per May 21, 2017
Temps Temperatura Punt de rosada Pression baro Vent Wind Speed RĂ fegues de vent Humitat Rainfall Rate (Hourly)
TemperatureC °F DewpointC °F PressurehPa in Calm     Humidity % HourlyPrecipMM in
00:00 12.5 °F 8.8 °F 1023.9 in SSW 1.6 mph 1.6 mph 78 % 0.0 in
00:04 15.5 °F 10.3 °F 1026.0 in NE 5.6 mph 5.6 mph 71 % 0.0 in
00:09 15.4 °F 10.2 °F 1026.0 in NE 3.7 mph 3.7 mph 71 % 0.0 in
00:10 12.4 °F 8.7 °F 1024.9 in Calm     78 % 0.0 in
00:20 12.1 °F 8.4 °F 1024.9 in Calm     78 % 0.0 in
00:30 12.0 °F 8.4 °F 1023.9 in ESE 1.6 mph 3.2 mph 79 % 0.0 in
00:40 11.9 °F 8.4 °F 1023.9 in ENE 1.6 mph 3.2 mph 79 % 0.0 in
00:50 11.9 °F 8.4 °F 1023.9 in NE 1.6 mph 3.2 mph 79 % 0.0 in
01:00 11.8 °F 8.3 °F 1023.9 in Calm   1.6 mph 79 % 0.0 in
01:10 11.7 °F 8.2 °F 1023.9 in Calm     79 % 0.0 in
01:20 11.6 °F 8.1 °F 1023.9 in East 1.6 mph 1.6 mph 79 % 0.0 in
01:30 11.5 °F 8.0 °F 1023.9 in Calm     79 % 0.0 in
01:40 11.4 °F 8.1 °F 1023.9 in Calm     80 % 0.0 in
01:50 11.4 °F 8.1 °F 1023.9 in NNE 1.6 mph 1.6 mph 80 % 0.0 in
02:00 11.5 °F 8.2 °F 1024.9 in Calm   3.2 mph 80 % 0.0 in
02:10 11.8 °F 8.4 °F 1023.9 in Calm   3.2 mph 80 % 0.0 in
02:20 12.0 °F 8.7 °F 1023.9 in ESE 1.6 mph 3.2 mph 80 % 0.0 in
02:30 12.1 °F 8.6 °F 1023.9 in South 3.2 mph 3.2 mph 79 % 0.0 in
02:40 12.2 °F 8.7 °F 1024.9 in SW 1.6 mph 3.2 mph 79 % 0.0 in
02:50 12.4 °F 8.8 °F 1024.9 in WSW 1.6 mph 4.8 mph 79 % 0.0 in
03:00 13.1 °F 9.6 °F 1024.9 in Calm   1.6 mph 79 % 0.0 in
03:10 13.9 °F 9.9 °F 1024.9 in SSW 3.2 mph 3.2 mph 77 % 0.0 in
03:20 13.7 °F 9.6 °F 1024.9 in SSW 1.6 mph 3.2 mph 76 % 0.0 in
03:30 14.3 °F 10.1 °F 1023.9 in SW 3.2 mph 3.2 mph 76 % 0.0 in
03:40 15.1 °F 10.7 °F 1023.9 in SW 1.6 mph 3.2 mph 75 % 0.0 in
03:50 15.9 °F 11.3 °F 1023.9 in Calm   3.2 mph 74 % 0.0 in
04:00 15.7 °F 10.4 °F 1024.9 in NE 4.8 mph 4.8 mph 71 % 0.0 in
04:10 16.1 °F 10.8 °F 1023.9 in NE 3.2 mph 6.4 mph 71 % 0.0 in
04:20 16.3 °F 10.8 °F 1023.9 in ENE 3.2 mph 4.8 mph 70 % 0.0 in
04:30 16.8 °F 11.1 °F 1023.9 in ENE 3.2 mph 4.8 mph 69 % 0.0 in
04:40 17.8 °F 11.6 °F 1023.9 in Calm   3.2 mph 67 % 0.0 in
04:50 17.9 °F 11.2 °F 1023.9 in NE 3.2 mph 4.8 mph 65 % 0.0 in
05:00 18.2 °F 11.5 °F 1023.9 in NE 1.6 mph 4.8 mph 65 % 0.0 in
05:10 18.4 °F 11.4 °F 1023.9 in ENE 4.8 mph 4.8 mph 64 % 0.0 in
05:20 18.8 °F 11.6 °F 1023.9 in ENE 1.6 mph 6.4 mph 63 % 0.0 in
05:30 19.7 °F 11.9 °F 1023.9 in SE 3.2 mph 3.2 mph 61 % 0.0 in
05:40 19.8 °F 11.8 °F 1023.9 in South 3.2 mph 4.8 mph 60 % 0.0 in
05:50 20.2 °F 11.7 °F 1023.9 in SSW 1.6 mph 3.2 mph 58 % 0.0 in
06:00 20.8 °F 11.9 °F 1022.9 in SSW 3.2 mph 6.4 mph 57 % 0.0 in
06:10 21.1 °F 12.0 °F 1023.9 in SSW 3.2 mph 4.8 mph 56 % 0.0 in
06:20 21.4 °F 11.7 °F 1023.9 in SSW 3.2 mph 8.0 mph 54 % 0.0 in
06:30 21.6 °F 11.3 °F 1023.9 in SW 4.8 mph 8.0 mph 52 % 0.0 in
06:40 22.3 °F 11.9 °F 1023.9 in WSW 4.8 mph 8.0 mph 52 % 0.0 in
06:50 22.2 °F 11.6 °F 1023.9 in SW 4.8 mph 9.7 mph 51 % 0.0 in
07:00 23.2 °F 12.2 °F 1023.9 in SSW 8.0 mph 8.0 mph 50 % 0.0 in
07:10 23.4 °F 12.1 °F 1023.9 in SSW 4.8 mph 4.8 mph 49 % 0.0 in
12:14 23.6 °F 12.3 °F 1023.9 in SSW 5.6 mph 6.1 mph 49 % 0.0 in
12:15 23.6 °F 12.3 °F 1023.9 in SW 5.6 mph 6.1 mph 49 % 0.0 in
12:20 23.7 °F 12.3 °F 1023.9 in SW 9.3 mph 9.3 mph 49 % 0.0 in
12:25 23.8 °F 12.1 °F 1023.9 in SW 9.3 mph 9.3 mph 48 % 0.0 in
12:30 23.8 °F 12.4 °F 1023.9 in SW 13.0 mph 13.0 mph 49 % 0.0 in
12:35 24.1 °F 12.7 °F 1023.9 in SW 13.0 mph 13.0 mph 49 % 0.0 in
12:40 24.5 °F 13.1 °F 1023.9 in SSW 7.4 mph 7.4 mph 49 % 0.0 in
12:45 23.9 °F 12.6 °F 1023.9 in SW 9.3 mph 10.8 mph 49 % 0.0 in
12:50 23.8 °F 12.4 °F 1023.9 in SSW 9.3 mph 9.3 mph 49 % 0.0 in
12:55 23.7 °F 12.3 °F 1022.9 in WNW 14.8 mph 14.8 mph 49 % 0.0 in
13:00 24.0 °F 12.6 °F 1022.9 in SSW 11.1 mph 11.1 mph 49 % 0.0 in
13:05 23.8 °F 12.4 °F 1022.9 in WNW 16.7 mph 16.7 mph 49 % 0.0 in
13:10 24.1 °F 12.4 °F 1022.9 in SSW 7.4 mph 7.4 mph 48 % 0.0 in
13:15 24.2 °F 12.5 °F 1022.9 in WSW 18.5 mph 18.5 mph 48 % 0.0 in
13:17 24.1 °F 12.4 °F 1022.9 in SSW 14.8 mph 14.8 mph 48 % 0.0 in
13:22 24.1 °F 12.4 °F 1022.9 in WSW 7.4 mph 7.4 mph 48 % 0.0 in
13:27 24.4 °F 12.7 °F 1022.9 in SW 9.7 mph 9.7 mph 48 % 0.0 in
13:32 24.3 °F 12.3 °F 1022.9 in SW 5.6 mph 6.1 mph 47 % 0.0 in
13:37 24.6 °F 12.6 °F 1022.9 in SW 5.6 mph 5.6 mph 47 % 0.0 in
13:42 24.9 °F 12.8 °F 1022.9 in South 10.3 mph 10.3 mph 47 % 0.0 in
13:47 25.1 °F 12.7 °F 1022.9 in SE 7.4 mph 7.4 mph 46 % 0.0 in
13:52 25.0 °F 12.2 °F 1022.9 in ESE 12.6 mph 12.6 mph 45 % 0.0 in
13:57 25.2 °F 12.1 °F 1022.9 in ESE 7.4 mph 7.4 mph 44 % 0.0 in
14:02 25.1 °F 12.0 °F 1022.9 in SW 7.4 mph 7.4 mph 44 % 0.0 in
14:07 24.7 °F 11.9 °F 1022.9 in SSW 6.4 mph 6.4 mph 45 % 0.0 in
14:12 25.2 °F 12.1 °F 1021.9 in SSW 9.3 mph 9.3 mph 44 % 0.0 in
14:17 25.7 °F 12.6 °F 1021.9 in South 7.4 mph 7.4 mph 44 % 0.0 in
14:22 25.4 °F 11.9 °F 1021.9 in SE 9.3 mph 9.3 mph 43 % 0.0 in
14:27 25.3 °F 11.8 °F 1021.9 in WSW 4.2 mph 4.2 mph 43 % 0.0 in
14:32 25.0 °F 11.6 °F 1021.9 in SE 9.3 mph 9.3 mph 43 % 0.0 in
14:37 25.7 °F 12.2 °F 1021.9 in SSW 5.6 mph 5.6 mph 43 % 0.0 in
14:42 25.8 °F 12.3 °F 1021.9 in West 4.2 mph 4.2 mph 43 % 0.0 in
14:47 25.7 °F 12.2 °F 1021.9 in WSW 13.0 mph 13.0 mph 43 % 0.0 in
14:52 25.5 °F 11.7 °F 1021.9 in SW 13.0 mph 13.0 mph 42 % 0.0 in
14:57 25.7 °F 11.8 °F 1021.9 in ESE 7.4 mph 7.4 mph 42 % 0.0 in
15:02 25.8 °F 11.9 °F 1021.9 in WSW 13.0 mph 13.0 mph 42 % 0.0 in
15:07 25.7 °F 11.8 °F 1021.9 in SSW 9.3 mph 9.3 mph 42 % 0.0 in
15:12 26.1 °F 12.2 °F 1021.9 in SSW 13.0 mph 13.0 mph 42 % 0.0 in
15:17 25.8 °F 11.9 °F 1021.9 in SW 11.1 mph 11.1 mph 42 % 0.0 in
15:22 25.9 °F 11.6 °F 1021.9 in WSW 9.3 mph 9.3 mph 41 % 0.0 in
15:27 25.9 °F 12.0 °F 1021.9 in WSW 5.6 mph 5.6 mph 42 % 0.0 in
15:32 26.2 °F 12.3 °F 1021.9 in WSW 9.3 mph 9.3 mph 42 % 0.0 in
15:37 26.0 °F 11.7 °F 1021.9 in WSW 13.0 mph 13.0 mph 41 % 0.0 in
15:42 26.0 °F 11.7 °F 1021.9 in SSW 16.7 mph 16.7 mph 41 % 0.0 in
15:47 26.2 °F 11.9 °F 1021.9 in SSW 11.1 mph 11.1 mph 41 % 0.0 in
15:48 26.1 °F 11.8 °F 1021.9 in SW 13.0 mph 13.0 mph 41 % 0.0 in
15:53 25.7 °F 11.4 °F 1020.9 in SW 14.8 mph 14.8 mph 41 % 0.0 in
15:58 25.6 °F 11.4 °F 1020.9 in SW 14.8 mph 14.8 mph 41 % 0.0 in
16:03 25.6 °F 11.4 °F 1020.9 in West 13.0 mph 13.0 mph 41 % 0.0 in
16:08 25.5 °F 11.3 °F 1020.9 in WSW 14.8 mph 14.8 mph 41 % 0.0 in
16:13 25.8 °F 11.6 °F 1020.9 in South 9.3 mph 9.3 mph 41 % 0.0 in
16:18 25.5 °F 11.3 °F 1020.9 in SW 13.0 mph 13.0 mph 41 % 0.0 in
16:19 25.6 °F 11.4 °F 1020.9 in SW 14.0 mph 14.0 mph 41 % 0.0 in
16:24 25.6 °F 11.4 °F 1020.9 in West 13.0 mph 13.0 mph 41 % 0.0 in
16:29 25.6 °F 11.0 °F 1020.9 in SW 22.2 mph 22.2 mph 40 % 0.0 in
16:34 25.6 °F 11.0 °F 1020.9 in South 11.1 mph 11.1 mph 40 % 0.0 in
16:39 25.6 °F 11.0 °F 1020.9 in SSW 13.0 mph 13.0 mph 40 % 0.0 in
16:44 25.3 °F 10.7 °F 1020.9 in SW 14.8 mph 14.8 mph 40 % 0.0 in
16:49 25.6 °F 11.0 °F 1020.9 in WSW 9.3 mph 9.3 mph 40 % 0.0 in
16:54 25.9 °F 11.3 °F 1020.9 in SSW 7.4 mph 7.4 mph 40 % 0.0 in
16:59 26.1 °F 11.4 °F 1020.9 in SW 9.5 mph 9.5 mph 40 % 0.0 in
17:04 25.5 °F 10.9 °F 1020.9 in WSW 18.5 mph 18.5 mph 40 % 0.0 in
17:09 25.3 °F 10.7 °F 1019.9 in SW 11.9 mph 11.9 mph 40 % 0.0 in
17:14 25.5 °F 10.9 °F 1019.9 in SW 13.0 mph 13.0 mph 40 % 0.0 in
17:19 25.6 °F 10.6 °F 1019.9 in SSE 9.3 mph 9.3 mph 39 % 0.0 in
17:24 25.1 °F 10.2 °F 1019.9 in WSW 11.1 mph 11.1 mph 39 % 0.0 in
17:29 25.2 °F 10.3 °F 1019.9 in SSW 7.6 mph 7.6 mph 39 % 0.0 in
17:34 24.6 °F 10.1 °F 1019.9 in SW 13.0 mph 13.0 mph 40 % 0.0 in
17:39 24.4 °F 9.9 °F 1019.9 in SSW 23.7 mph 23.7 mph 40 % 0.0 in
17:40 24.4 °F 9.9 °F 1019.9 in SSW 9.5 mph 9.5 mph 40 % 0.0 in
17:45 24.2 °F 9.7 °F 1019.9 in SW 16.9 mph 16.9 mph 40 % 0.0 in
17:50 24.0 °F 9.6 °F 1019.9 in SW 15.6 mph 15.6 mph 40 % 0.0 in
17:55 24.0 °F 9.6 °F 1018.8 in South 11.1 mph 11.1 mph 40 % 0.0 in
18:00 24.1 °F 9.7 °F 1018.8 in SW 9.7 mph 14.5 mph 40 % 0.0 in
18:05 24.1 °F 10.0 °F 1018.8 in SW 8.0 mph 16.1 mph 41 % 0.0 in
18:10 23.9 °F 9.8 °F 1019.9 in WSW 16.7 mph 16.7 mph 41 % 0.0 in
18:15 23.6 °F 9.2 °F 1019.9 in SW 10.0 mph 10.0 mph 40 % 0.0 in
18:20 23.3 °F 9.3 °F 1019.9 in SW 13.0 mph 13.0 mph 41 % 0.0 in
18:25 23.3 °F 9.3 °F 1019.9 in SW 7.4 mph 7.4 mph 41 % 0.0 in
18:30 23.2 °F 9.2 °F 1019.9 in SW 16.7 mph 16.7 mph 41 % 0.0 in
18:35 22.5 °F 8.9 °F 1019.9 in West 13.0 mph 13.0 mph 42 % 0.0 in
18:40 22.3 °F 8.8 °F 1019.9 in SSW 11.1 mph 11.1 mph 42 % 0.0 in
18:45 22.1 °F 8.6 °F 1019.9 in SW 20.4 mph 20.4 mph 42 % 0.0 in
18:50 22.1 °F 8.9 °F 1019.9 in SW 16.7 mph 16.7 mph 43 % 0.0 in
18:55 22.2 °F 9.0 °F 1020.9 in SSE 7.4 mph 7.4 mph 43 % 0.0 in
19:00 22.1 °F 8.9 °F 1020.9 in West 13.0 mph 13.0 mph 43 % 0.0 in
19:05 21.8 °F 9.0 °F 1020.9 in West 22.2 mph 22.2 mph 44 % 0.0 in
19:10 21.5 °F 8.7 °F 1020.9 in SW 15.6 mph 15.6 mph 44 % 0.0 in
19:15 21.1 °F 8.7 °F 1020.9 in SSW 13.0 mph 13.0 mph 45 % 0.0 in
19:20 21.0 °F 8.6 °F 1020.9 in SSW 9.3 mph 9.3 mph 45 % 0.0 in
19:25 21.1 °F 8.7 °F 1020.9 in SSW 5.6 mph 5.6 mph 45 % 0.0 in
19:30 21.1 °F 8.7 °F 1020.9 in SW 13.7 mph 13.7 mph 45 % 0.0 in
19:35 20.8 °F 8.8 °F 1020.9 in SW 13.0 mph 13.0 mph 46 % 0.0 in
19:40 20.5 °F 8.5 °F 1020.9 in SSW 9.3 mph 9.3 mph 46 % 0.0 in
19:45 20.2 °F 8.2 °F 1020.9 in SSW 14.8 mph 14.8 mph 46 % 0.0 in
19:50 20.2 °F 8.2 °F 1020.9 in WSW 15.8 mph 15.8 mph 46 % 0.0 in
19:55 20.0 °F 8.0 °F 1020.9 in SW 11.9 mph 11.9 mph 46 % 0.0 in
20:00 19.9 °F 7.9 °F 1020.9 in WSW 9.3 mph 9.3 mph 46 % 0.0 in
20:05 20.0 °F 8.0 °F 1020.9 in SW 7.4 mph 7.4 mph 46 % 0.0 in
20:10 19.9 °F 8.2 °F 1020.9 in SW 5.6 mph 5.6 mph 47 % 0.0 in
20:15 19.8 °F 8.2 °F 1020.9 in SW 9.3 mph 9.3 mph 47 % 0.0 in
20:20 19.6 °F 8.0 °F 1020.9 in WSW 7.4 mph 7.4 mph 47 % 0.0 in
20:25 19.4 °F 7.8 °F 1019.9 in SSW 9.3 mph 9.3 mph 47 % 0.0 in
20:30 19.4 °F 7.8 °F 1019.9 in WSW 9.3 mph 9.3 mph 47 % 0.0 in
20:35 19.3 °F 7.7 °F 1019.9 in SW 7.4 mph 7.4 mph 47 % 0.0 in
20:40 19.3 °F 7.7 °F 1019.9 in SSW 5.6 mph 5.6 mph 47 % 0.0 in
20:45 19.2 °F 7.6 °F 1019.9 in SW 7.4 mph 7.4 mph 47 % 0.0 in
20:50 19.1 °F 7.5 °F 1019.9 in SW 5.6 mph 5.6 mph 47 % 0.0 in
20:55 19.0 °F 7.4 °F 1019.9 in WSW 9.7 mph 9.7 mph 47 % 0.0 in
21:00 18.9 °F 7.7 °F 1019.9 in SSW 3.7 mph 3.9 mph 48 % 0.0 in
21:05 18.8 °F 7.8 °F 1019.9 in WSW 3.7 mph 3.7 mph 49 % 0.0 in
21:10 18.7 °F 7.8 °F 1019.9 in WSW 5.6 mph 5.6 mph 49 % 0.0 in
21:15 18.6 °F 7.7 °F 1019.9 in South 5.3 mph 5.3 mph 49 % 0.0 in
21:20 18.5 °F 7.6 °F 1019.9 in WSW 3.7 mph 3.7 mph 49 % 0.0 in
21:25 18.5 °F 7.6 °F 1019.9 in West 3.7 mph 3.7 mph 49 % 0.0 in
21:30 18.5 °F 7.6 °F 1019.9 in SW 3.7 mph 3.7 mph 49 % 0.0 in
21:35 18.4 °F 7.5 °F 1019.9 in SSW 5.6 mph 5.6 mph 49 % 0.0 in
21:40 18.3 °F 7.4 °F 1019.9 in WSW 5.6 mph 5.6 mph 49 % 0.0 in
21:45 18.3 °F 7.7 °F 1019.9 in WSW 3.5 mph   50 % 0.0 in
21:50 18.2 °F 7.6 °F 1019.9 in WSW 5.6 mph 5.6 mph 50 % 0.0 in
21:55 18.1 °F 7.5 °F 1019.9 in West 5.6 mph 5.6 mph 50 % 0.0 in
22:00 18.1 °F 7.5 °F 1019.9 in SW 3.7 mph 3.7 mph 50 % 0.0 in
22:05 18.1 °F 7.5 °F 1019.9 in SW 3.7 mph 3.7 mph 50 % 0.0 in
22:10 18.0 °F 7.4 °F 1019.9 in SW 3.7 mph 3.7 mph 50 % 0.0 in
22:15 18.0 °F 7.4 °F 1019.9 in SW 3.9 mph 3.9 mph 50 % 0.0 in
22:20 17.8 °F 7.5 °F 1019.9 in SW 3.7 mph 3.7 mph 51 % 0.0 in
22:25 17.7 °F 7.4 °F 1019.9 in SW 7.4 mph 7.4 mph 51 % 0.0 in
22:30 17.7 °F 7.4 °F 1019.9 in WNW 3.7 mph 3.7 mph 51 % 0.0 in
22:35 17.7 °F 7.7 °F 1019.9 in WSW 1.9 mph   52 % 0.0 in
22:40 17.7 °F 7.7 °F 1020.9 in SW 3.7 mph 3.7 mph 52 % 0.0 in
22:45 17.6 °F 7.9 °F 1020.9 in Calm     53 % 0.0 in
22:50 17.6 °F 7.9 °F 1020.9 in WSW 3.7 mph 3.7 mph 53 % 0.0 in
22:51 17.6 °F 7.9 °F 1020.9 in SW 3.7 mph 3.7 mph 53 % 0.0 in
22:56 17.5 °F 8.1 °F 1019.9 in WSW 3.7 mph 3.7 mph 54 % 0.0 in
23:01 17.5 °F 8.1 °F 1019.9 in WSW 5.6 mph 5.6 mph 54 % 0.0 in
23:06 17.5 °F 8.1 °F 1019.9 in SW 3.5 mph 3.5 mph 54 % 0.0 in
23:11 17.5 °F 8.3 °F 1019.9 in SW 2.6 mph 2.6 mph 55 % 0.0 in
23:16 17.5 °F 8.3 °F 1019.9 in WSW 3.7 mph 3.7 mph 55 % 0.0 in
23:21 17.4 °F 8.5 °F 1019.9 in SW 5.6 mph 5.6 mph 56 % 0.0 in
23:26 17.4 °F 8.8 °F 1020.9 in SW 3.7 mph 3.7 mph 57 % 0.0 in
23:31 17.4 °F 9.1 °F 1020.9 in WNW 3.9 mph 3.9 mph 58 % 0.0 in
23:36 17.4 °F 9.1 °F 1020.9 in WSW 3.7 mph 3.7 mph 58 % 0.0 in
23:41 17.4 °F 9.3 °F 1020.9 in WSW 3.7 mph 3.7 mph 59 % 0.0 in
23:46 17.3 °F 9.4 °F 1020.9 in SW 3.7 mph 3.7 mph 60 % 0.0 in
23:51 17.2 °F 9.6 °F 1020.9 in SW 3.7 mph 3.7 mph 61 % 0.0 in
23:56 17.1 °F 9.5 °F 1019.9 in SW 3.7 mph 3.7 mph 61 % 0.0 in
Meteo Sesrovires
Elogis d' Weather Underground - 1.5 mb

Guio original per  Jim McMurry - jmcmurry@mwt.net Adaptat per a la plantilla per  Wim van der Kuil - Leuven-Template.eu

Trobareu la nostra informacio del temps tambe a:

Weather Underground

AWEKAS